Time;durP1;ratioP1;P1;durP2;ratioP2;P2;SDS_P1;SDS_P2;PMS_P1;PMS_P2;Temp;Humidity;BMP_temperature;BMP_pressure;BME280_temperature;BME280_humidity;BME280_pressure;Samples;Min_cycle;Max_cycle;Signal;HPM_P1;HPM_P2
2022/06/09 00:00:32;;;;;;;15.20;6.90;;;13.40;99.90;;;;;;4876449;29;20496;-78
2022/06/09 00:03:17;;;;;;;15.68;6.05;;;13.40;99.90;;;;;;4858831;29;20044;-79
2022/06/09 00:05:49;;;;;;;19.77;5.93;;;13.30;99.90;;;;;;4867374;29;20492;-78
2022/06/09 00:08:25;;;;;;;20.08;5.43;;;13.20;99.90;;;;;;4861958;29;20051;-78
2022/06/09 00:11:03;;;;;;;18.98;5.72;;;13.20;99.90;;;;;;4870394;29;20052;-78
2022/06/09 00:13:34;;;;;;;17.58;5.78;;;13.20;99.90;;;;;;4865831;29;20133;-79
2022/06/09 00:16:09;;;;;;;14.25;5.80;;;13.20;99.90;;;;;;4853087;29;20424;-78
2022/06/09 00:18:41;;;;;;;13.82;6.55;;;13.00;99.90;;;;;;4855515;29;20139;-79
2022/06/09 00:21:12;;;;;;;12.57;5.05;;;12.90;99.90;;;;;;4857816;29;20053;-78
2022/06/09 00:23:53;;;;;;;10.02;5.60;;;13.00;99.90;;;;;;4848592;29;20047;-78
2022/06/09 00:26:19;;;;;;;12.93;5.10;;;12.90;99.90;;;;;;4854910;29;20106;-78
2022/06/09 00:28:55;;;;;;;11.80;5.50;;;12.90;99.90;;;;;;4899859;29;20040;-78
2022/06/09 00:31:26;;;;;;;12.02;5.20;;;12.80;99.90;;;;;;4881209;29;20667;-78
2022/06/09 00:33:56;;;;;;;15.40;5.13;;;12.70;99.90;;;;;;4859433;29;20040;-78
2022/06/09 00:36:33;;;;;;;18.02;5.38;;;12.70;99.90;;;;;;4873237;29;20065;-79
2022/06/09 00:39:02;;;;;;;16.60;5.15;;;12.70;99.90;;;;;;4877624;29;20048;-78
2022/06/09 00:41:36;;;;;;;18.17;5.38;;;12.60;99.90;;;;;;4870350;29;20041;-78
2022/06/09 00:44:21;;;;;;;18.30;4.78;;;12.60;99.90;;;;;;4865827;29;20097;-78
2022/06/09 00:47:00;;;;;;;14.68;5.40;;;12.60;99.90;;;;;;4855344;29;20068;-79
2022/06/09 00:49:40;;;;;;;16.98;5.72;;;12.50;99.90;;;;;;4857738;29;20041;-78
2022/06/09 00:52:16;;;;;;;17.50;5.43;;;12.60;99.90;;;;;;4851443;29;20479;-78
2022/06/09 00:54:53;;;;;;;13.65;5.28;;;12.50;99.90;;;;;;4852624;29;20385;-79
2022/06/09 00:57:40;;;;;;;21.02;5.47;;;12.50;99.90;;;;;;4865044;29;20041;-78
2022/06/09 01:00:17;;;;;;;13.38;5.10;;;12.50;99.90;;;;;;4852352;29;20453;-78
2022/06/09 01:02:51;;;;;;;18.35;5.18;;;12.50;99.90;;;;;;4876218;29;20112;-78
2022/06/09 01:05:21;;;;;;;11.52;5.30;;;12.50;99.90;;;;;;4865987;29;20092;-79
2022/06/09 01:08:11;;;;;;;14.35;5.43;;;12.40;99.90;;;;;;4875371;29;20067;-79
2022/06/09 01:10:38;;;;;;;18.48;6.20;;;12.40;99.90;;;;;;4862798;29;20076;-79
2022/06/09 01:13:07;;;;;;;13.55;5.97;;;12.30;99.90;;;;;;4861252;29;20040;-78
2022/06/09 01:15:41;;;;;;;20.05;5.85;;;12.30;99.90;;;;;;4870978;29;20045;-79
2022/06/09 01:18:30;;;;;;;16.02;5.88;;;12.40;99.90;;;;;;4858389;29;20538;-79
2022/06/09 01:21:24;;;;;;;21.20;6.95;;;12.30;99.90;;;;;;4886931;29;20124;-79
2022/06/09 01:24:14;;;;;;;17.67;6.63;;;12.30;99.90;;;;;;4857910;29;20064;-79
2022/06/09 01:27:03;;;;;;;17.42;5.88;;;12.30;99.90;;;;;;4874963;29;20520;-78
2022/06/09 01:30:20;;;;;;;17.90;6.78;;;12.30;99.90;;;;;;4859048;29;20044;-78
2022/06/09 01:32:58;;;;;;;16.92;6.78;;;12.20;99.90;;;;;;4777549;29;20075;-78
2022/06/09 01:36:01;;;;;;;15.52;7.07;;;12.20;99.90;;;;;;4857629;29;20053;-78
2022/06/09 01:39:09;;;;;;;;;;;;;;;;;;;;;
2022/06/09 01:41:35;;;;;;;18.67;6.90;;;12.20;99.90;;;;;;4865929;29;20583;-78
2022/06/09 01:44:04;;;;;;;20.92;6.90;;;12.20;99.90;;;;;;4849878;29;20049;-78
2022/06/09 01:46:36;;;;;;;17.60;6.72;;;12.10;99.90;;;;;;4857601;29;20051;-78
2022/06/09 01:49:32;;;;;;;19.52;7.13;;;12.10;99.90;;;;;;4850895;29;20441;-79
2022/06/09 01:52:03;;;;;;;20.10;7.00;;;12.10;99.90;;;;;;4843114;29;20049;-78
2022/06/09 01:54:39;;;;;;;19.45;7.25;;;12.10;99.90;;;;;;4860910;29;20102;-78
2022/06/09 01:57:12;;;;;;;22.77;7.38;;;12.10;99.90;;;;;;4898781;29;20523;-78
2022/06/09 01:59:45;;;;;;;21.33;7.63;;;12.10;99.90;;;;;;4855474;29;20071;-79
2022/06/09 02:02:19;;;;;;;34.55;8.60;;;12.10;99.90;;;;;;4861309;29;20040;-78
2022/06/09 02:05:11;;;;;;;18.90;7.30;;;12.10;99.90;;;;;;4855939;29;20044;-78
2022/06/09 02:07:41;;;;;;;26.30;7.63;;;12.00;99.90;;;;;;4874820;29;20072;-78
2022/06/09 02:10:41;;;;;;;23.30;8.50;;;12.00;99.90;;;;;;4861132;29;20141;-79
2022/06/09 02:13:22;;;;;;;28.30;8.73;;;12.00;99.90;;;;;;4894021;29;20108;-78
2022/06/09 02:15:54;;;;;;;16.00;7.55;;;12.00;99.90;;;;;;4856959;29;20049;-79
2022/06/09 02:18:37;;;;;;;24.02;8.45;;;12.00;99.90;;;;;;4863159;29;20058;-78
2022/06/09 02:21:13;;;;;;;29.65;8.13;;;12.00;99.90;;;;;;4830689;29;20037;-79
2022/06/09 02:23:45;;;;;;;26.20;9.35;;;12.10;99.90;;;;;;4838780;29;20641;-78
2022/06/09 02:26:20;;;;;;;30.05;8.55;;;12.10;99.90;;;;;;4868875;29;20119;-79
2022/06/09 02:28:49;;;;;;;30.25;8.40;;;12.10;99.90;;;;;;4878998;29;20048;-79
2022/06/09 02:31:17;;;;;;;24.00;7.93;;;12.10;99.90;;;;;;4863219;29;20465;-78
2022/06/09 02:33:49;;;;;;;22.63;8.98;;;12.10;99.90;;;;;;4869651;29;20147;-78
2022/06/09 02:36:18;;;;;;;19.83;8.43;;;12.10;99.90;;;;;;4854961;29;20057;-79
2022/06/09 02:38:47;;;;;;;24.60;8.57;;;12.10;99.90;;;;;;4857533;29;20445;-79
2022/06/09 02:41:21;;;;;;;31.50;7.75;;;12.10;99.90;;;;;;4856709;29;20592;-79
2022/06/09 02:43:47;;;;;;;28.92;8.52;;;12.10;99.90;;;;;;4848759;29;20041;-78
2022/06/09 02:46:13;;;;;;;31.73;8.80;;;12.10;99.90;;;;;;4862722;29;20487;-78
2022/06/09 02:48:42;;;;;;;23.83;8.32;;;12.10;99.90;;;;;;4868272;29;20495;-79
2022/06/09 02:51:34;;;;;;;28.48;8.82;;;12.20;99.90;;;;;;4854665;29;20037;-78
2022/06/09 02:54:12;;;;;;;23.88;9.48;;;12.20;99.90;;;;;;4849968;29;20127;-79
2022/06/09 02:56:43;;;;;;;28.23;8.20;;;12.20;99.90;;;;;;4844513;29;20064;-79
2022/06/09 02:59:14;;;;;;;21.40;7.50;;;12.20;99.90;;;;;;4861980;29;20501;-79
2022/06/09 03:01:51;;;;;;;28.92;9.23;;;12.10;99.90;;;;;;4856920;29;20045;-79
2022/06/09 03:04:20;;;;;;;25.15;8.65;;;12.20;99.90;;;;;;4874226;29;20432;-79
2022/06/09 03:06:49;;;;;;;36.65;8.45;;;12.20;99.90;;;;;;4882225;29;20083;-79
2022/06/09 03:09:26;;;;;;;31.67;7.90;;;12.20;99.90;;;;;;4872164;29;20166;-79
2022/06/09 03:12:00;;;;;;;24.20;8.50;;;12.30;99.90;;;;;;4842266;29;20041;-79
2022/06/09 03:14:29;;;;;;;34.03;8.85;;;12.20;99.90;;;;;;4872085;29;20526;-79
2022/06/09 03:16:57;;;;;;;22.50;7.55;;;12.20;99.90;;;;;;4857815;29;20041;-79
2022/06/09 03:19:27;;;;;;;21.70;8.00;;;12.20;99.90;;;;;;4868645;29;20060;-79
2022/06/09 03:22:00;;;;;;;21.42;7.93;;;12.20;99.90;;;;;;4854631;29;20041;-79
2022/06/09 03:24:48;;;;;;;18.88;8.52;;;12.10;99.90;;;;;;4826951;29;20407;-79
2022/06/09 03:27:23;;;;;;;26.85;8.23;;;12.10;99.90;;;;;;4861390;29;20135;-79
2022/06/09 03:29:50;;;;;;;23.95;8.38;;;12.10;99.90;;;;;;4866001;29;20076;-79
2022/06/09 03:32:21;;;;;;;22.13;7.55;;;12.10;99.90;;;;;;4857036;29;20048;-79
2022/06/09 03:34:56;;;;;;;21.92;7.97;;;12.10;99.90;;;;;;4851681;29;20123;-79
2022/06/09 03:37:26;;;;;;;22.48;8.43;;;12.00;99.90;;;;;;4832774;29;20435;-79
2022/06/09 03:40:21;;;;;;;23.38;7.45;;;11.90;99.90;;;;;;4863900;29;20037;-80
2022/06/09 03:42:54;;;;;;;25.35;8.20;;;12.00;99.90;;;;;;4899290;29;20041;-79
2022/06/09 03:45:26;;;;;;;18.27;7.93;;;12.00;99.90;;;;;;4898174;29;20559;-79
2022/06/09 03:48:01;;;;;;;14.13;6.93;;;11.90;99.90;;;;;;4862959;29;20409;-79
2022/06/09 03:50:34;;;;;;;14.18;7.28;;;12.00;99.90;;;;;;4857107;29;20048;-79
2022/06/09 03:53:03;;;;;;;;;;;11.90;99.90;;;;;;4853824;29;20528;-79
2022/06/09 03:55:31;;;;;;;20.17;7.38;;;11.90;99.90;;;;;;4855190;29;20426;-79
2022/06/09 03:58:17;;;;;;;17.27;8.52;;;11.80;99.90;;;;;;4852217;29;20053;-79
2022/06/09 04:01:11;;;;;;;21.08;6.97;;;11.90;99.90;;;;;;4856193;29;20045;-79
2022/06/09 04:03:48;;;;;;;17.45;7.20;;;12.00;99.90;;;;;;4868407;29;20052;-79
2022/06/09 04:06:24;;;;;;;23.63;7.75;;;11.90;99.90;;;;;;4878259;29;20124;-79
2022/06/09 04:09:00;;;;;;;27.10;7.80;;;12.00;99.90;;;;;;4863684;29;20408;-80
2022/06/09 04:11:29;;;;;;;16.83;7.75;;;12.00;99.90;;;;;;4860750;29;20124;-79
2022/06/09 04:14:07;;;;;;;21.30;7.38;;;12.10;99.90;;;;;;4861176;29;20044;-79
2022/06/09 04:16:44;;;;;;;13.23;7.00;;;12.10;99.90;;;;;;4870636;29;20382;-80
2022/06/09 04:19:18;;;;;;;19.00;7.20;;;12.20;99.90;;;;;;4882597;29;20044;-79
2022/06/09 04:21:56;;;;;;;21.15;7.22;;;12.40;99.90;;;;;;4878507;29;20071;-79
2022/06/09 04:24:29;;;;;;;19.23;7.88;;;12.50;99.90;;;;;;4882151;29;20408;-79
2022/06/09 04:27:22;;;;;;;23.88;7.60;;;12.70;99.90;;;;;;4860663;29;20076;-79
2022/06/09 04:29:54;;;;;;;17.90;7.32;;;13.00;99.90;;;;;;4855631;29;20419;-79
2022/06/09 04:32:55;;;;;;;11.55;6.22;;;13.10;99.90;;;;;;4889511;29;20088;-80
2022/06/09 04:35:27;;;;;;;9.52;5.82;;;13.50;99.90;;;;;;4850731;29;20096;-80
2022/06/09 04:38:18;;;;;;;17.52;5.63;;;13.70;99.90;;;;;;4870243;29;20036;-80
2022/06/09 04:41:33;;;;;;;17.65;5.15;;;13.90;99.90;;;;;;4872030;29;20545;-80
2022/06/09 04:44:29;;;;;;;17.70;5.20;;;14.20;99.90;;;;;;4821723;29;20120;-80
2022/06/09 04:47:24;;;;;;;8.55;4.40;;;14.60;99.90;;;;;;4852344;29;20057;-80
2022/06/09 04:50:25;;;;;;;9.20;4.47;;;15.00;99.90;;;;;;4838708;29;20104;-80
2022/06/09 04:53:33;;;;;;;6.60;4.03;;;15.20;99.90;;;;;;4903962;29;20044;-79
2022/06/09 04:56:42;;;;;;;5.88;3.60;;;15.30;99.90;;;;;;4820811;29;20129;-80
2022/06/09 04:59:34;;;;;;;5.43;3.72;;;15.60;99.90;;;;;;4829270;29;20085;-80
2022/06/09 05:03:20;;;;;;;6.00;3.47;;;15.80;99.90;;;;;;4802155;29;20054;-80
2022/06/09 05:06:22;;;;;;;4.63;3.05;;;16.10;99.90;;;;;;4768567;30;20059;-81
2022/06/09 05:09:36;;;;;;;;;;;16.40;99.90;;;;;;4764961;30;20043;-82
2022/06/09 08:01:24;;;;;;;2.25;1.08;;;20.80;99.90;;;;;;4714258;30;20083;-81
2022/06/09 08:16:33;;;;;;;;;;;;;;;;;;;;;
2022/06/09 08:27:28;;;;;;;3.60;1.30;;;22.00;99.90;;;;;;4753124;30;20044;-82
2022/06/09 08:30:43;;;;;;;2.33;1.00;;;22.20;99.90;;;;;;4786696;29;20134;-81
2022/06/09 08:37:54;;;;;;;4.03;1.05;;;22.30;99.90;;;;;;4750912;30;20068;-82
2022/06/09 08:41:18;;;;;;;;;;;;;;;;;;;;;
2022/06/09 08:44:54;;;;;;;2.70;0.80;;;22.90;99.90;;;;;;4731543;30;20060;-81
2022/06/09 09:11:26;;;;;;;;;;;;;;;;;;;;;
2022/06/09 09:15:10;;;;;;;3.35;0.70;;;22.90;99.90;;;;;;4682379;30;20178;-81
2022/06/09 09:18:35;;;;;;;;;;;;;;;;;;;;;
2022/06/09 09:33:06;;;;;;;;;;;;;;;;;;;;;
2022/06/09 09:40:12;;;;;;;1.95;0.75;;;24.70;99.90;;;;;;6099064;23;20291;-82
2022/06/09 09:47:19;;;;;;;2.05;0.60;;;25.10;99.90;;;;;;6256334;23;20520;-82
2022/06/09 09:50:51;;;;;;;3.00;0.80;;;25.10;99.90;;;;;;6052336;23;20018;-82
2022/06/09 09:58:39;;;;;;;;;;;;;;;;;;;;;
2022/06/09 10:09:32;;;;;;;2.88;0.65;;;26.10;99.90;;;;;;6138466;23;20009;-82
2022/06/09 10:12:59;;;;;;;2.83;0.70;;;26.40;99.90;;;;;;5999909;23;20023;-82
2022/06/09 10:19:37;;;;;;;1.17;0.52;;;26.20;99.90;;;;;;6021103;23;20189;-82
2022/06/09 10:22:46;;;;;;;2.65;0.40;;;26.20;99.90;;;;;;6084292;23;20355;-82
2022/06/09 10:25:52;;;;;;;;;;;26.10;99.90;;;;;;6137585;23;20042;-82
2022/06/09 10:29:01;;;;;;;2.05;0.52;;;26.00;99.80;;;;;;6232866;23;20070;-82
2022/06/09 10:32:39;;;;;;;1.65;0.60;;;25.80;99.90;;;;;;6290315;22;20011;-82
2022/06/09 10:35:30;;;;;;;2.10;0.70;;;25.80;99.90;;;;;;6252975;22;20047;-82
2022/06/09 10:38:27;;;;;;;3.78;0.73;;;26.00;99.90;;;;;;6251929;22;20042;-82
2022/06/09 10:41:44;;;;;;;;;;;;;;;;;;;;;
2022/06/09 10:44:57;;;;;;;1.30;0.50;;;26.60;99.90;;;;;;6280978;22;20010;-81
2022/06/09 10:55:14;;;;;;;2.60;0.60;;;26.30;99.90;;;;;;6252342;22;20448;-82
2022/06/09 10:58:07;;;;;;;1.90;0.40;;;25.90;99.90;;;;;;6227722;22;20016;-80
2022/06/09 11:01:01;;;;;;;1.80;0.50;;;25.60;99.90;;;;;;6251255;22;20008;-81
2022/06/09 11:03:50;;;;;;;2.15;0.60;;;25.90;99.90;;;;;;6235825;22;20051;-81
2022/06/09 11:07:10;;;;;;;1.60;0.60;;;25.90;99.90;;;;;;6223533;22;20014;-81
2022/06/09 11:10:14;;;;;;;2.35;0.55;;;25.80;99.90;;;;;;6226013;22;20016;-81
2022/06/09 11:13:15;;;;;;;1.77;0.50;;;25.40;99.90;;;;;;6226159;22;20023;-81
2022/06/09 11:16:35;;;;;;;2.83;0.90;;;25.30;99.90;;;;;;6254318;22;20011;-81
2022/06/09 11:19:40;;;;;;;3.13;0.73;;;25.10;99.90;;;;;;6225836;22;20020;-80
2022/06/09 11:23:00;;;;;;;8.37;1.00;;;25.00;99.90;;;;;;6220827;22;20202;-81
2022/06/09 11:26:12;;;;;;;;;;;;;;;;;;;;;
2022/06/09 11:37:00;;;;;;;3.72;1.02;;;24.80;99.90;;;;;;6183912;23;20090;-81
2022/06/09 12:25:32;;;;;;;;;;;;;;;;;;;;;
2022/06/09 12:48:09;;;;;;;;;;;;;;;;;;;;;
2022/06/09 14:17:07;;;;;;;;;;;;;;;;;;;;;
2022/06/09 15:45:42;;;;;;;4.18;1.30;;;19.80;99.90;;;;;;5989040;24;20028;-80
2022/06/09 15:56:52;;;;;;;4.55;1.38;;;19.50;99.90;;;;;;6042332;23;20034;-80
2022/06/09 16:00:38;;;;;;;3.65;1.17;;;19.50;99.90;;;;;;6131379;23;20059;-80
2022/06/09 16:23:32;;;;;;;4.50;1.08;;;19.00;99.90;;;;;;5818031;24;20037;-81
2022/06/09 16:27:16;;;;;;;4.30;1.30;;;19.00;99.90;;;;;;4583547;27;15221019;-82
2022/06/09 16:37:19;;;;;;;3.00;1.10;;;18.80;99.90;;;;;;5046697;28;20043;-79
2022/06/09 16:39:54;;;;;;;3.85;1.15;;;18.70;99.90;;;;;;5060038;28;20028;-80
2022/06/09 16:42:35;;;;;;;4.88;1.45;;;18.60;99.90;;;;;;5067861;28;20502;-80
2022/06/09 16:45:05;;;;;;;7.82;1.40;;;18.60;99.90;;;;;;5059589;28;20081;-80
2022/06/09 16:47:33;;;;;;;4.85;1.17;;;18.50;99.90;;;;;;5074639;28;20569;-80
2022/06/09 16:50:05;;;;;;;5.65;1.50;;;18.50;99.90;;;;;;5050508;28;20051;-80
2022/06/09 16:52:32;;;;;;;3.70;1.05;;;18.50;99.90;;;;;;5067167;28;20035;-79
2022/06/09 16:55:16;;;;;;;3.75;1.40;;;18.40;99.90;;;;;;5081499;28;20044;-80
2022/06/09 17:03:06;;;;;;;5.38;1.17;;;18.30;99.90;;;;;;5045055;28;20046;-80
2022/06/09 17:05:58;;;;;;;3.55;1.20;;;18.30;99.90;;;;;;5016192;28;20164;-80
2022/06/09 17:08:36;;;;;;;4.57;1.23;;;18.20;99.90;;;;;;4995856;28;20050;-79
2022/06/09 17:11:13;;;;;;;5.22;0.95;;;18.20;99.90;;;;;;5002489;28;20042;-79
2022/06/09 17:13:47;;;;;;;3.92;1.15;;;18.10;99.90;;;;;;5009693;28;20496;-80
2022/06/09 17:16:33;;;;;;;;;;;;;;;;;;;;;
2022/06/09 17:19:07;;;;;;;5.95;1.48;;;18.00;99.90;;;;;;5036223;28;20043;-80
2022/06/09 17:21:56;;;;;;;3.17;0.93;;;18.00;99.90;;;;;;5017331;28;20034;-80
2022/06/09 17:24:23;;;;;;;5.97;1.00;;;17.90;99.90;;;;;;5008460;28;20055;-80
2022/06/09 17:26:56;;;;;;;5.40;1.70;;;17.90;99.90;;;;;;5021278;28;20505;-80
2022/06/09 17:30:18;;;;;;;6.50;1.70;;;17.80;99.90;;;;;;5038428;28;20038;-80
2022/06/09 17:33:08;;;;;;;4.18;0.98;;;17.80;99.90;;;;;;5033101;28;20041;-79
2022/06/09 17:35:47;;;;;;;10.60;1.83;;;17.80;99.90;;;;;;5014291;28;20041;-80
2022/06/09 17:38:16;;;;;;;7.28;1.73;;;17.80;99.90;;;;;;5015144;28;20056;-78
2022/06/09 17:40:47;;;;;;;7.70;1.80;;;17.70;99.90;;;;;;4992152;28;20038;-79
2022/06/09 17:43:20;;;;;;;6.38;1.30;;;17.70;99.90;;;;;;4992216;28;20524;-79
2022/06/09 17:45:53;;;;;;;4.68;1.20;;;17.60;99.90;;;;;;5016306;28;20511;-79
2022/06/09 17:48:22;;;;;;;3.80;1.33;;;17.40;99.90;;;;;;5018359;28;20037;-79
2022/06/09 17:50:53;;;;;;;6.47;1.50;;;17.30;99.90;;;;;;5011302;28;20038;-79
2022/06/09 17:53:22;;;;;;;4.68;1.30;;;17.20;99.90;;;;;;5008984;28;20041;-79
2022/06/09 17:55:49;;;;;;;3.88;1.00;;;17.10;99.90;;;;;;5017541;28;20037;-79
2022/06/09 17:58:16;;;;;;;5.38;1.23;;;17.10;99.90;;;;;;5018177;28;20044;-79
2022/06/09 18:00:47;;;;;;;3.92;1.25;;;17.10;99.90;;;;;;5005564;28;20046;-79
2022/06/09 18:03:23;;;;;;;4.53;1.17;;;17.00;99.90;;;;;;5009453;28;20113;-79
2022/06/09 18:06:00;;;;;;;6.07;1.35;;;17.00;99.90;;;;;;5014167;28;20404;-79
2022/06/09 18:08:32;;;;;;;3.47;1.00;;;16.90;99.90;;;;;;4977942;28;20081;-79
2022/06/09 18:11:04;;;;;;;3.63;1.80;;;16.90;99.90;;;;;;4988451;28;20093;-79
2022/06/09 18:13:40;;;;;;;5.45;1.00;;;16.80;99.90;;;;;;5003095;28;20400;-79
2022/06/09 18:16:18;;;;;;;2.70;1.13;;;16.80;99.90;;;;;;5014857;28;20073;-80
2022/06/09 18:18:50;;;;;;;3.80;1.15;;;16.80;99.90;;;;;;5012156;28;20042;-78
2022/06/09 18:21:20;;;;;;;3.78;1.08;;;16.60;99.90;;;;;;4998225;28;20042;-79
2022/06/09 18:23:53;;;;;;;4.03;1.10;;;16.60;99.90;;;;;;4981559;28;20042;-79
2022/06/09 18:26:21;;;;;;;4.97;1.30;;;16.60;99.90;;;;;;5015559;28;20092;-79
2022/06/09 18:28:50;;;;;;;6.03;1.15;;;16.40;99.90;;;;;;5008177;28;20042;-78
2022/06/09 18:31:21;;;;;;;2.85;1.38;;;16.40;99.90;;;;;;4999365;28;20124;-78
2022/06/09 18:33:50;;;;;;;3.38;1.00;;;16.30;99.90;;;;;;4989808;28;20034;-78
2022/06/09 18:36:19;;;;;;;5.75;1.25;;;16.30;99.90;;;;;;5002734;28;20103;-79
2022/06/09 18:38:51;;;;;;;8.35;1.83;;;16.10;99.90;;;;;;5008539;28;20141;-78
2022/06/09 18:41:23;;;;;;;4.38;1.48;;;16.10;99.90;;;;;;5017772;28;20068;-78
2022/06/09 18:43:51;;;;;;;3.60;1.25;;;16.00;99.90;;;;;;5002572;28;20037;-78
2022/06/09 18:46:23;;;;;;;3.55;1.10;;;15.90;99.90;;;;;;5004060;28;20049;-79
2022/06/09 18:48:52;;;;;;;5.07;1.40;;;15.90;99.90;;;;;;4997072;28;20049;-78
2022/06/09 18:51:19;;;;;;;5.32;1.40;;;15.80;99.90;;;;;;4997311;28;20044;-78
2022/06/09 18:53:49;;;;;;;3.70;1.40;;;15.70;99.90;;;;;;4998535;28;20512;-78
2022/06/09 18:56:19;;;;;;;3.50;1.10;;;15.60;99.90;;;;;;5010799;28;20049;-78
2022/06/09 18:58:47;;;;;;;6.95;1.45;;;15.50;99.90;;;;;;5022039;28;20054;-78
2022/06/09 19:01:21;;;;;;;3.90;1.30;;;15.40;99.90;;;;;;4984346;28;20053;-78
2022/06/09 19:03:58;;;;;;;6.18;1.35;;;15.40;99.90;;;;;;4997559;28;20054;-78
2022/06/09 19:06:51;;;;;;;;;;;;;;;;;;;;;
2022/06/09 19:09:44;;;;;;;6.93;1.45;;;15.20;99.90;;;;;;4934071;29;20059;-80
2022/06/09 19:12:46;;;;;;;6.00;1.20;;;15.10;99.90;;;;;;4945920;28;20129;-80
2022/06/09 19:15:36;;;;;;;4.43;1.83;;;14.90;99.90;;;;;;4983882;28;20060;-80
2022/06/09 19:18:23;;;;;;;3.63;1.00;;;14.80;99.90;;;;;;5005189;28;20100;-80
2022/06/09 19:21:06;;;;;;;3.53;1.35;;;14.70;99.90;;;;;;4993369;28;20104;-80
2022/06/09 19:23:52;;;;;;;4.32;1.48;;;14.60;99.90;;;;;;5005006;28;20039;-80
2022/06/09 19:26:29;;;;;;;7.15;1.45;;;14.50;99.90;;;;;;5015936;28;20124;-80
2022/06/09 19:29:19;;;;;;;5.05;1.35;;;14.30;99.90;;;;;;4985422;28;20050;-80
2022/06/09 19:31:46;;;;;;;3.35;1.23;;;14.30;99.90;;;;;;4997630;28;20042;-78
2022/06/09 19:34:13;;;;;;;5.25;1.50;;;14.20;99.90;;;;;;5000513;28;20025;-78
2022/06/09 19:36:43;;;;;;;6.28;1.60;;;14.10;99.90;;;;;;5014148;28;20029;-79
2022/06/09 19:39:10;;;;;;;4.32;1.20;;;14.00;99.90;;;;;;4979925;28;20500;-79
2022/06/09 19:41:46;;;;;;;5.63;1.40;;;13.90;99.90;;;;;;5003318;28;20036;-79
2022/06/09 19:44:22;;;;;;;6.80;2.05;;;13.80;99.90;;;;;;4994928;28;20049;-79
2022/06/09 19:46:52;;;;;;;3.95;1.35;;;13.80;99.90;;;;;;4988324;28;20448;-79
2022/06/09 19:49:21;;;;;;;5.57;1.85;;;13.60;99.90;;;;;;4998853;28;20053;-79
2022/06/09 19:51:51;;;;;;;3.97;1.55;;;13.60;99.90;;;;;;5002873;28;20041;-79
2022/06/09 19:54:22;;;;;;;4.10;1.65;;;13.50;99.90;;;;;;4985345;28;20041;-79
2022/06/09 19:56:52;;;;;;;9.63;1.90;;;13.40;99.90;;;;;;4990889;28;20045;-78
2022/06/09 19:59:22;;;;;;;4.97;1.60;;;13.30;99.90;;;;;;5004303;28;20107;-78
2022/06/09 20:01:50;;;;;;;6.65;1.67;;;13.20;99.90;;;;;;5005853;28;20507;-79
2022/06/09 20:04:20;;;;;;;5.60;1.70;;;13.10;99.90;;;;;;5001053;28;20086;-79
2022/06/09 20:06:48;;;;;;;5.05;1.80;;;13.10;99.90;;;;;;4978679;28;20084;-79
2022/06/09 20:09:14;;;;;;;3.50;1.50;;;13.00;99.90;;;;;;4988089;28;20041;-79
2022/06/09 20:11:42;;;;;;;6.47;2.13;;;12.90;99.90;;;;;;5005179;28;20049;-79
2022/06/09 20:14:08;;;;;;;5.10;1.95;;;12.80;99.90;;;;;;5013801;28;20499;-79
2022/06/09 20:16:39;;;;;;;2.88;1.70;;;12.70;99.90;;;;;;4991431;28;20391;-78
2022/06/09 20:19:06;;;;;;;2.88;1.83;;;12.70;99.90;;;;;;4992807;28;20476;-78
2022/06/09 20:21:38;;;;;;;4.07;1.83;;;12.60;99.90;;;;;;5002622;28;20046;-78
2022/06/09 20:24:06;;;;;;;3.80;1.90;;;12.60;99.90;;;;;;4994117;28;20030;-79
2022/06/09 20:26:38;;;;;;;4.55;1.83;;;12.50;99.90;;;;;;5015170;28;20107;-79
2022/06/09 20:29:06;;;;;;;6.32;1.90;;;12.50;99.90;;;;;;4974763;28;20393;-79
2022/06/09 20:31:35;;;;;;;4.05;1.92;;;12.40;99.90;;;;;;4991100;28;20046;-79
2022/06/09 20:34:24;;;;;;;4.95;1.90;;;12.30;99.90;;;;;;4982635;28;20064;-78
2022/06/09 20:36:55;;;;;;;2.67;1.70;;;12.20;99.90;;;;;;5018628;28;20062;-78
2022/06/09 20:39:24;;;;;;;5.03;1.90;;;12.20;99.90;;;;;;5029774;28;20045;-78
2022/06/09 20:41:52;;;;;;;4.82;1.83;;;12.10;99.90;;;;;;5030720;28;20067;-80
2022/06/09 20:44:21;;;;;;;6.40;2.22;;;12.00;99.90;;;;;;4989681;28;20045;-79
2022/06/09 20:47:02;;;;;;;4.68;2.35;;;11.90;99.90;;;;;;5004634;28;20092;-79
2022/06/09 20:49:31;;;;;;;4.15;1.90;;;11.90;99.90;;;;;;4995775;28;20049;-80
2022/06/09 20:51:58;;;;;;;6.80;3.13;;;11.90;99.90;;;;;;4979451;28;20029;-78
2022/06/09 20:54:26;;;;;;;5.03;1.92;;;11.80;99.90;;;;;;4997625;28;20034;-78
2022/06/09 20:56:55;;;;;;;7.05;2.53;;;11.80;99.90;;;;;;5004094;28;20041;-79
2022/06/09 20:59:24;;;;;;;4.60;1.88;;;11.80;99.90;;;;;;5030735;28;20385;-79
2022/06/09 21:01:58;;;;;;;3.97;2.00;;;11.80;99.90;;;;;;4994451;28;20046;-79
2022/06/09 21:04:29;;;;;;;5.22;2.20;;;11.70;99.90;;;;;;4988700;28;20093;-78
2022/06/09 21:06:55;;;;;;;3.05;2.08;;;11.70;99.90;;;;;;4996573;28;20160;-78
2022/06/09 21:09:24;;;;;;;5.43;2.10;;;11.60;99.90;;;;;;5013567;28;20392;-79
2022/06/09 21:20:39;;;;;;;5.10;2.83;;;11.50;99.90;;;;;;5025821;28;20050;-80
2022/06/09 21:23:07;;;;;;;5.38;3.30;;;11.50;99.90;;;;;;4990158;28;20500;-79
2022/06/09 21:25:38;;;;;;;5.30;3.10;;;11.30;99.90;;;;;;5001210;28;20060;-78
2022/06/09 21:28:05;;;;;;;9.00;2.85;;;11.30;99.90;;;;;;5008823;28;20037;-79
2022/06/09 21:30:33;;;;;;;7.30;3.50;;;11.30;99.90;;;;;;4985805;28;20045;-78
2022/06/09 21:33:00;;;;;;;5.28;3.25;;;11.30;99.90;;;;;;4994173;28;20036;-79
2022/06/09 21:35:36;;;;;;;5.53;2.90;;;11.30;99.90;;;;;;5001249;28;20038;-79
2022/06/09 21:38:03;;;;;;;4.90;3.20;;;11.20;99.90;;;;;;5001505;28;20046;-79
2022/06/09 21:40:30;;;;;;;5.05;2.90;;;11.20;99.90;;;;;;5003868;28;20460;-78
2022/06/09 21:42:57;;;;;;;5.00;2.97;;;11.10;99.90;;;;;;4988173;28;20037;-79
2022/06/09 21:45:25;;;;;;;6.63;3.00;;;11.10;99.90;;;;;;5021037;28;20125;-78
2022/06/09 21:47:55;;;;;;;4.22;3.13;;;11.10;99.90;;;;;;5000707;28;20037;-78
2022/06/09 21:50:24;;;;;;;5.75;3.55;;;11.20;99.90;;;;;;5012474;28;20115;-79
2022/06/09 21:52:55;;;;;;;4.65;3.15;;;11.10;99.90;;;;;;5008627;28;20495;-79
2022/06/09 21:55:22;;;;;;;7.90;4.90;;;11.00;99.90;;;;;;5005176;28;20091;-79
2022/06/09 21:57:52;;;;;;;5.45;3.80;;;11.00;99.90;;;;;;4991914;28;20041;-79
2022/06/09 22:00:24;;;;;;;5.35;3.97;;;11.00;99.90;;;;;;5000245;28;20046;-78
2022/06/09 22:02:52;;;;;;;5.60;3.70;;;10.90;99.90;;;;;;5004117;28;20041;-78
2022/06/09 22:05:20;;;;;;;6.03;4.00;;;11.00;99.90;;;;;;5003912;28;20041;-79
2022/06/09 22:07:58;;;;;;;6.95;3.45;;;10.90;99.90;;;;;;4996468;28;20394;-79
2022/06/09 22:10:27;;;;;;;4.75;3.67;;;10.90;99.90;;;;;;4999430;28;20583;-78
2022/06/09 22:12:54;;;;;;;5.00;3.40;;;10.80;99.90;;;;;;4992980;28;20029;-79
2022/06/09 22:15:21;;;;;;;4.93;3.42;;;10.80;99.90;;;;;;5012361;28;20571;-78
2022/06/09 22:17:52;;;;;;;8.02;3.65;;;10.80;99.90;;;;;;5016600;28;20041;-79
2022/06/09 22:20:30;;;;;;;6.38;3.60;;;10.80;99.90;;;;;;4998347;28;20520;-79
2022/06/09 22:22:57;;;;;;;6.40;4.03;;;10.70;99.90;;;;;;5006592;28;20503;-78
2022/06/09 22:25:25;;;;;;;6.88;4.13;;;10.70;99.90;;;;;;5005106;28;20049;-79
2022/06/09 22:27:54;;;;;;;8.07;3.80;;;10.70;99.90;;;;;;4993771;28;20504;-78
2022/06/09 22:30:28;;;;;;;5.88;3.85;;;10.60;99.90;;;;;;4999812;28;20045;-78
2022/06/09 22:32:58;;;;;;;5.85;4.03;;;10.50;99.90;;;;;;4991603;28;20062;-79
2022/06/09 22:35:30;;;;;;;7.72;4.45;;;10.50;99.90;;;;;;5004544;28;20044;-79
2022/06/09 22:38:01;;;;;;;8.95;4.13;;;10.50;99.90;;;;;;5025394;28;20038;-78
2022/06/09 22:40:35;;;;;;;7.38;4.80;;;10.50;99.90;;;;;;4984929;28;20045;-79
2022/06/09 22:43:06;;;;;;;7.05;4.22;;;10.50;99.90;;;;;;5004651;28;20049;-79
2022/06/09 22:45:38;;;;;;;9.98;4.43;;;10.50;99.90;;;;;;4998875;28;20033;-78
2022/06/09 22:48:22;;;;;;;6.57;4.68;;;10.50;99.90;;;;;;4992173;28;20124;-78
2022/06/09 22:50:48;;;;;;;10.52;5.20;;;10.50;99.90;;;;;;4995125;28;20982;-79
2022/06/09 22:53:15;;;;;;;8.32;4.50;;;10.40;99.90;;;;;;5023576;28;20091;-78
2022/06/09 22:58:39;;;;;;;9.05;5.53;;;10.40;99.90;;;;;;5034943;28;20045;-79
2022/06/09 23:01:06;;;;;;;7.32;5.65;;;10.40;99.90;;;;;;5005958;28;20641;-78
2022/06/09 23:03:41;;;;;;;7.55;5.38;;;10.30;99.90;;;;;;5033385;28;20052;-78
2022/06/09 23:06:11;;;;;;;7.93;5.70;;;10.40;99.90;;;;;;4998738;28;20042;-78
2022/06/09 23:08:49;;;;;;;8.60;5.78;;;10.40;99.90;;;;;;4981877;28;20061;-78
2022/06/09 23:11:22;;;;;;;9.45;6.00;;;10.40;99.90;;;;;;4986723;28;20098;-79
2022/06/09 23:13:48;;;;;;;7.65;6.13;;;10.30;99.90;;;;;;5006421;28;20045;-79
2022/06/09 23:16:26;;;;;;;10.73;6.38;;;10.40;99.90;;;;;;5002903;28;20033;-79
2022/06/09 23:18:59;;;;;;;7.72;5.78;;;10.40;99.90;;;;;;5005940;28;20389;-79
2022/06/09 23:21:32;;;;;;;7.47;5.55;;;10.40;99.90;;;;;;4987501;28;20440;-79
2022/06/09 23:23:59;;;;;;;9.02;6.70;;;10.50;99.90;;;;;;5002607;28;20133;-79
2022/06/09 23:26:35;;;;;;;7.47;5.20;;;10.40;99.90;;;;;;5000616;28;20125;-79